createdAt,value
2023-01-03T00:02:28.204Z,133.40
2023-01-03T00:07:34.841Z,122.05
2023-01-03T00:12:37.716Z,133.82
2023-01-03T00:17:40.085Z,125.43
2023-01-03T00:22:43.941Z,119.40
2023-01-03T00:27:46.352Z,125.88
2023-01-03T00:32:48.708Z,112.80
2023-01-03T00:37:52.446Z,112.80
2023-01-03T00:43:12.311Z,112.47
2023-01-03T00:48:14.718Z,111.20
2023-01-03T00:53:18.408Z,109.20
2023-01-03T00:58:20.782Z,116.00
2023-01-03T01:03:23.253Z,123.78
2023-01-03T01:08:27.029Z,109.78
2023-01-03T01:18:31.649Z,127.47
2023-01-03T01:23:37.564Z,126.30
2023-01-03T01:28:40.363Z,135.80
2023-01-03T01:33:42.921Z,120.93
2023-01-03T01:38:47.060Z,125.65
2023-01-03T01:44:13.863Z,118.47
2023-01-03T01:49:19.508Z,126.97
2023-01-03T01:54:23.230Z,144.63
2023-01-03T01:59:28.264Z,133.65
2023-01-03T02:04:33.080Z,120.10
2023-01-03T02:09:36.887Z,142.32
2023-01-03T02:14:43.785Z,127.72
2023-01-03T02:19:57.639Z,139.80
2023-01-03T02:25:11.990Z,145.38
2023-01-03T02:30:29.670Z,165.35
2023-01-03T02:35:37.010Z,163.18
2023-01-03T02:40:40.838Z,157.73
2023-01-03T02:46:00.840Z,165.70
2023-01-03T02:51:05.016Z,152.05
2023-01-03T02:56:09.309Z,145.25
2023-01-03T03:01:13.491Z,136.15
2023-01-03T03:06:19.984Z,168.30
2023-01-03T03:11:40.262Z,175.80
2023-01-03T03:16:50.862Z,161.10
2023-01-03T03:22:11.014Z,131.00
2023-01-03T03:27:29.165Z,154.10
2023-01-03T03:32:34.629Z,160.52
2023-01-03T03:37:39.172Z,176.23
2023-01-03T03:43:02.076Z,302.23
2023-01-03T03:48:08.735Z,267.98
2023-01-03T03:53:12.089Z,306.05
2023-01-03T03:58:16.046Z,435.15
2023-01-03T04:03:20.428Z,338.40
2023-01-03T04:08:23.066Z,373.52
2023-01-03T04:13:25.424Z,319.73
2023-01-03T04:18:29.176Z,265.13
2023-01-03T04:23:31.636Z,241.93
2023-01-03T04:28:34.018Z,232.50
2023-01-03T04:33:37.740Z,232.60
2023-01-03T04:38:40.089Z,225.68
2023-01-03T04:44:00.006Z,229.95
2023-01-03T04:49:04.190Z,244.52
2023-01-03T04:54:07.029Z,221.75
2023-01-03T04:59:09.391Z,221.97
2023-01-03T05:04:13.227Z,218.52
2023-01-03T05:09:15.681Z,210.07
2023-01-03T05:14:18.055Z,223.18
2023-01-03T05:19:21.804Z,211.75
2023-01-03T05:24:42.004Z,198.23
2023-01-03T05:29:44.731Z,192.63
2023-01-03T05:34:48.463Z,198.70
2023-01-03T05:39:50.879Z,190.38
2023-01-03T05:44:53.259Z,206.05
2023-01-03T05:49:57.059Z,207.23
2023-01-03T05:54:59.455Z,194.00
2023-01-03T06:00:01.811Z,201.18
2023-01-03T06:05:05.900Z,175.45
2023-01-03T06:10:08.967Z,181.45
2023-01-03T06:15:11.486Z,183.20
2023-01-03T06:20:15.357Z,171.38
2023-01-03T06:25:17.850Z,178.30
2023-01-03T06:30:20.998Z,201.60
2023-01-03T06:35:24.773Z,182.38
2023-01-03T06:40:34.018Z,209.05
2023-01-03T06:45:53.560Z,212.60
2023-01-03T06:51:29.043Z,228.30
2023-01-03T06:56:31.469Z,209.45
2023-01-03T07:01:34.412Z,210.02
2023-01-03T07:06:38.293Z,224.52
2023-01-03T07:11:41.264Z,228.48
2023-01-03T07:16:44.633Z,199.45
2023-01-03T07:21:48.359Z,222.65
2023-01-03T07:26:50.789Z,185.70
2023-01-03T07:31:53.261Z,209.68
2023-01-03T07:36:56.990Z,212.00
2023-01-03T07:42:17.027Z,204.38
2023-01-03T07:47:19.408Z,205.48
2023-01-03T07:52:23.103Z,191.18
2023-01-03T07:57:25.508Z,181.55
2023-01-03T08:02:28.012Z,188.13
2023-01-03T08:07:31.829Z,152.80
2023-01-03T08:12:51.657Z,175.50
2023-01-03T08:17:54.132Z,169.52
2023-01-03T08:22:59.686Z,147.85
2023-01-03T08:28:02.685Z,134.52
2023-01-03T08:33:05.256Z,137.32
2023-01-03T08:38:10.492Z,128.38
2023-01-03T08:43:13.415Z,109.55
2023-01-03T08:48:16.854Z,114.65
2023-01-03T08:53:22.874Z,105.97
2023-01-03T08:58:25.261Z,106.03
2023-01-03T09:03:27.833Z,100.78
2023-01-03T09:08:32.505Z,86.63
2023-01-03T09:13:35.059Z,89.32
2023-01-03T09:18:37.964Z,82.78
2023-01-03T09:23:41.668Z,79.50
2023-01-03T09:28:44.079Z,72.75
2023-01-03T09:33:46.534Z,60.97
2023-01-03T09:38:50.271Z,63.20
2023-01-03T09:43:56.741Z,54.95
2023-01-03T09:49:01.221Z,58.75
2023-01-03T09:54:22.673Z,44.80
2023-01-03T09:59:43.034Z,43.70
2023-01-03T10:05:09.599Z,40.78
2023-01-03T10:10:17.536Z,42.83
2023-01-03T10:15:24.518Z,35.63
2023-01-03T10:20:34.554Z,36.33
2023-01-03T10:25:39.947Z,33.05
2023-01-03T10:30:56.628Z,36.20
2023-01-03T10:36:01.217Z,29.00
2023-01-03T10:41:05.813Z,30.63
2023-01-03T10:46:15.110Z,32.38
2023-01-03T10:51:24.840Z,37.85
2023-01-03T10:56:29.869Z,32.22
2023-01-03T11:01:32.488Z,33.13
2023-01-03T11:06:35.232Z,33.77
2023-01-03T11:11:41.969Z,37.47
2023-01-03T11:16:44.422Z,29.23
2023-01-03T11:21:47.657Z,34.03
2023-01-03T11:26:52.387Z,31.73
2023-01-03T11:31:57.216Z,26.67
2023-01-03T11:37:02.682Z,28.02
2023-01-03T11:42:34.207Z,25.60
2023-01-03T11:47:41.975Z,35.13
2023-01-03T11:52:46.248Z,24.17
2023-01-03T11:57:54.337Z,26.70
2023-01-03T12:03:01.499Z,24.08
2023-01-03T12:08:09.526Z,21.95
2023-01-03T12:13:25.265Z,20.25
2023-01-03T12:18:38.572Z,20.42
2023-01-03T12:23:42.105Z,19.52
2023-01-03T12:33:50.676Z,19.85
2023-01-03T12:38:56.670Z,19.58
2023-01-03T12:44:00.753Z,20.70
2023-01-03T12:49:07.933Z,19.05
2023-01-03T12:54:17.023Z,20.08
2023-01-03T12:59:27.455Z,18.75
2023-01-03T13:04:33.398Z,18.42
2023-01-03T13:09:37.285Z,19.88
2023-01-03T13:14:53.588Z,20.92
2023-01-03T13:19:58.463Z,20.35
2023-01-03T13:25:15.764Z,20.55
2023-01-03T13:30:20.274Z,21.33
2023-01-03T13:35:34.835Z,19.40
2023-01-03T13:41:15.955Z,18.95
2023-01-03T13:46:02.452Z,18.00
2023-01-03T13:51:29.054Z,15.45
2023-01-03T13:56:34.154Z,15.30
2023-01-03T14:01:46.573Z,14.15
2023-01-03T14:06:56.711Z,15.98
2023-01-03T14:12:09.221Z,12.93
2023-01-03T14:17:15.867Z,15.23
2023-01-03T14:22:31.494Z,18.95
2023-01-03T14:27:39.300Z,14.02
2023-01-03T14:32:41.720Z,14.20
2023-01-03T14:37:47.220Z,10.77
2023-01-03T14:42:50.919Z,10.73
2023-01-03T14:47:54.473Z,10.73
2023-01-03T14:52:57.921Z,11.00
2023-01-03T15:03:04.702Z,12.57
2023-01-03T15:08:11.572Z,13.50
2023-01-03T15:13:19.403Z,10.02
2023-01-03T15:18:24.405Z,11.15
2023-01-03T15:23:41.681Z,9.93
2023-01-03T15:28:50.418Z,12.48
2023-01-03T15:34:04.666Z,14.25
2023-01-03T15:39:09.008Z,12.82
2023-01-03T15:44:12.446Z,16.23
2023-01-03T15:54:19.330Z,13.65
2023-01-03T15:59:24.645Z,12.48
2023-01-03T16:04:27.458Z,12.75
2023-01-03T16:09:31.153Z,14.87
2023-01-03T16:14:35.248Z,13.55
2023-01-03T16:19:37.636Z,11.85
2023-01-03T16:24:41.653Z,8.00
2023-01-03T16:29:44.099Z,11.27
2023-01-03T16:34:46.674Z,12.35
2023-01-03T16:39:50.473Z,9.57
2023-01-03T16:44:52.896Z,11.40
2023-01-03T16:49:56.279Z,11.48
2023-01-03T16:55:01.431Z,10.90
2023-01-03T17:00:04.646Z,11.43
2023-01-03T17:05:07.341Z,11.10
2023-01-03T17:10:15.108Z,11.60
2023-01-03T17:15:17.594Z,12.43
2023-01-03T17:20:20.708Z,14.60
2023-01-03T17:25:24.872Z,14.02
2023-01-03T17:30:28.278Z,11.50
2023-01-03T17:35:30.821Z,13.98
2023-01-03T17:40:34.804Z,13.05
2023-01-03T17:45:55.049Z,10.65
2023-01-03T17:50:57.611Z,12.40
2023-01-03T17:56:01.774Z,10.63
2023-01-03T18:01:05.777Z,8.35
2023-01-03T18:06:13.596Z,10.68
2023-01-03T18:11:18.851Z,10.32
2023-01-03T18:16:22.705Z,9.13
2023-01-03T18:21:27.647Z,10.57
2023-01-03T18:26:34.141Z,9.82
2023-01-03T18:31:36.683Z,9.02
2023-01-03T18:36:41.020Z,9.80
2023-01-03T18:41:45.882Z,13.52
2023-01-03T18:46:48.566Z,7.25
2023-01-03T18:51:53.558Z,8.90
2023-01-03T18:56:57.550Z,7.63
2023-01-03T19:02:00.292Z,5.03
2023-01-03T19:07:02.843Z,7.65
2023-01-03T19:12:07.684Z,11.60
2023-01-03T19:17:12.004Z,6.40
2023-01-03T19:22:20.185Z,7.82
2023-01-03T19:27:25.251Z,7.95
2023-01-03T19:32:28.441Z,7.75
2023-01-03T19:37:30.922Z,6.28
2023-01-03T19:42:50.374Z,6.75
2023-01-03T19:47:52.835Z,5.60
2023-01-03T19:52:55.647Z,9.18
2023-01-03T19:58:00.433Z,6.57
2023-01-03T20:03:03.960Z,7.60
2023-01-03T20:08:12.210Z,9.05
2023-01-03T20:13:17.218Z,7.82
2023-01-03T20:18:23.715Z,7.60
2023-01-03T20:23:29.251Z,5.95
2023-01-03T20:28:33.201Z,8.82
2023-01-03T20:33:35.608Z,10.27
2023-01-03T20:38:38.137Z,6.22
2023-01-03T20:43:42.264Z,8.98
2023-01-03T20:48:44.755Z,9.00
2023-01-03T20:53:53.935Z,8.93
2023-01-03T20:58:58.430Z,12.13
2023-01-03T21:04:01.983Z,6.15
2023-01-03T21:14:10.382Z,9.40
2023-01-03T21:19:14.189Z,8.80
2023-01-03T21:24:17.867Z,6.25
2023-01-03T21:29:23.278Z,10.90
2023-01-03T21:34:25.701Z,11.45
2023-01-03T21:39:28.093Z,7.50
2023-01-03T21:44:31.869Z,10.60
2023-01-03T21:49:34.241Z,6.97
2023-01-03T21:54:36.746Z,6.75
2023-01-03T21:59:40.666Z,12.73
2023-01-03T22:04:43.151Z,5.32
2023-01-03T22:10:03.012Z,7.18
2023-01-03T22:15:07.648Z,9.48
2023-01-03T22:20:12.564Z,7.30
2023-01-03T22:25:15.959Z,12.63
2023-01-03T22:30:20.564Z,6.97
2023-01-03T22:35:23.030Z,7.00
2023-01-03T22:40:25.446Z,13.07
2023-01-03T22:45:29.253Z,8.57
2023-01-03T22:50:31.736Z,9.23
2023-01-03T22:55:34.406Z,4.72
2023-01-03T23:00:38.188Z,7.10
2023-01-03T23:05:40.654Z,9.75
2023-01-03T23:10:43.092Z,8.98
2023-01-03T23:15:46.813Z,6.47
2023-01-03T23:20:49.644Z,8.80
2023-01-03T23:25:52.010Z,6.85
2023-01-03T23:30:55.794Z,8.75
2023-01-03T23:36:03.283Z,10.70
2023-01-03T23:41:06.920Z,5.10
2023-01-03T23:46:14.613Z,8.48
2023-01-03T23:51:17.039Z,5.03
2023-01-03T23:56:20.536Z,11.45
